Time;durP1;ratioP1;P1;durP2;ratioP2;P2;SDS_P1;SDS_P2;PMS_P1;PMS_P2;Temp;Humidity;BMP_temperature;BMP_pressure;BME280_temperature;BME280_humidity;BME280_pressure;Samples;Min_cycle;Max_cycle;Signal;HPM_P1;HPM_P2
2022/03/06 00:01:30;;;;;;;6.17;2.75;;;;;;;-0.89;78.70;100045.22;1724910;80;21071;-69
2022/03/06 00:03:58;;;;;;;5.15;3.22;;;;;;;-0.94;78.55;100040.50;1715395;81;21051;-70
2022/03/06 00:06:28;;;;;;;6.37;3.00;;;;;;;-0.93;78.73;100036.73;1667087;81;21090;-72
2022/03/06 00:08:55;;;;;;;5.78;3.42;;;;;;;-0.88;78.80;100038.73;1694560;81;21107;-71
2022/03/06 00:11:23;;;;;;;7.12;3.12;;;;;;;-0.84;78.81;100037.23;1716232;81;21060;-72
2022/03/06 00:13:52;;;;;;;5.42;3.22;;;;;;;-0.81;78.81;100035.41;1747420;81;21020;-68
2022/03/06 00:16:19;;;;;;;7.87;3.12;;;;;;;-0.77;78.79;100034.42;1729164;81;20993;-71
2022/03/06 00:18:48;;;;;;;6.37;3.45;;;;;;;-0.75;78.74;100033.67;1732313;81;21186;-69
2022/03/06 00:21:16;;;;;;;7.15;3.77;;;;;;;-0.72;78.68;100038.61;1747680;81;21097;-71
2022/03/06 00:23:45;;;;;;;7.00;3.22;;;;;;;-0.72;78.63;100028.30;1719400;81;21620;-70
2022/03/06 00:26:14;;;;;;;5.03;3.33;;;;;;;-0.70;78.60;100030.26;1723383;81;21015;-71
2022/03/06 00:28:41;;;;;;;7.67;3.37;;;;;;;-0.68;78.57;100030.31;1716667;81;21211;-70
2022/03/06 00:31:08;;;;;;;8.55;3.90;;;;;;;-0.67;78.46;100029.27;1734944;81;21070;-71
2022/03/06 00:33:35;;;;;;;7.20;3.55;;;;;;;-0.67;78.39;100030.63;1694727;81;21013;-70
2022/03/06 00:36:04;;;;;;;11.85;4.50;;;;;;;-0.67;78.40;100033.33;1737679;81;21089;-71
2022/03/06 00:38:33;;;;;;;8.50;3.52;;;;;;;-0.69;78.43;100031.90;1726954;81;21056;-69
2022/03/06 00:41:00;;;;;;;6.83;3.20;;;;;;;-0.70;78.46;100030.26;1722387;81;21529;-72
2022/03/06 00:43:30;;;;;;;7.00;3.27;;;;;;;-0.71;78.54;100033.48;1708291;81;21107;-69
2022/03/06 00:45:59;;;;;;;5.55;3.27;;;;;;;-0.70;78.60;100031.06;1718483;81;20992;-68
2022/03/06 00:48:27;;;;;;;6.45;3.45;;;;;;;-0.70;78.61;100036.48;1719600;81;21301;-71
2022/03/06 00:50:54;;;;;;;9.08;4.00;;;;;;;-0.75;78.58;100032.31;1715111;81;21165;-69
2022/03/06 00:53:21;;;;;;;7.85;3.17;;;;;;;-0.80;78.58;100032.98;1713069;81;21627;-69
2022/03/06 00:55:50;;;;;;;5.00;3.00;;;;;;;-0.85;78.71;100030.15;1727558;81;21039;-71
2022/03/06 00:58:20;;;;;;;7.12;3.40;;;;;;;-0.84;78.81;100027.76;1737675;81;21454;-70
2022/03/06 01:00:50;;;;;;;5.75;3.52;;;;;;;-0.84;78.85;100033.17;1713227;81;21518;-69
2022/03/06 01:03:21;;;;;;;11.45;4.08;;;;;;;-0.83;78.93;100036.68;1721261;81;21436;-71
2022/03/06 01:05:48;;;;;;;9.58;4.03;;;;;;;-0.84;78.93;100039.94;1721685;81;21256;-68
2022/03/06 01:08:15;;;;;;;10.45;4.62;;;;;;;-0.87;79.03;100035.80;1716890;81;21601;-70
2022/03/06 01:10:44;;;;;;;7.90;4.70;;;;;;;-0.88;79.15;100038.22;1711790;82;20976;-68
2022/03/06 01:13:13;;;;;;;9.23;4.45;;;;;;;-0.89;79.13;100033.84;1719514;81;21000;-68
2022/03/06 01:15:41;;;;;;;9.90;5.22;;;;;;;-0.93;79.01;100037.25;1738028;81;21635;-71
2022/03/06 01:18:09;;;;;;;10.58;4.97;;;;;;;-0.95;79.12;100038.00;1730290;80;21130;-69
2022/03/06 01:20:40;;;;;;;8.90;4.85;;;;;;;-0.94;79.22;100041.86;1715743;81;20996;-71
2022/03/06 01:23:13;;;;;;;11.40;4.95;;;;;;;-0.93;79.29;100040.78;1719853;81;21068;-70
2022/03/06 01:25:40;;;;;;;10.53;4.40;;;;;;;-0.90;79.22;100039.48;1716458;81;21124;-69
2022/03/06 01:28:07;;;;;;;12.60;4.92;;;;;;;-0.90;79.18;100040.32;1711143;81;21481;-70
2022/03/06 01:30:36;;;;;;;9.88;5.00;;;;;;;-0.90;79.17;100044.90;1722825;80;21008;-70
2022/03/06 01:33:04;;;;;;;8.73;4.58;;;;;;;-0.90;79.10;100044.37;1724366;81;21013;-70
2022/03/06 01:35:32;;;;;;;10.70;4.62;;;;;;;-0.89;78.96;100044.66;1716139;81;21021;-68
2022/03/06 01:38:03;;;;;;;9.63;4.42;;;;;;;-0.90;78.89;100051.66;1712321;81;20999;-70
2022/03/06 01:40:30;;;;;;;16.77;6.97;;;;;;;-0.92;78.81;100043.78;1725420;81;21149;-70
2022/03/06 01:42:58;;;;;;;27.10;8.55;;;;;;;-0.93;78.89;100042.66;1718700;81;21051;-69
2022/03/06 01:45:27;;;;;;;28.57;10.03;;;;;;;-0.94;78.84;100041.86;1732035;81;21127;-69
2022/03/06 01:47:55;;;;;;;38.38;11.60;;;;;;;-0.95;78.77;100042.89;1729864;81;21075;-68
2022/03/06 01:50:32;;;;;;;54.10;16.55;;;;;;;-0.97;78.78;100042.29;1713270;81;21770;-70
2022/03/06 01:53:02;;;;;;;44.63;13.83;;;;;;;-0.96;78.79;100041.77;1676030;83;21413;-69
2022/03/06 01:55:32;;;;;;;37.17;12.37;;;;;;;-0.95;78.82;100046.12;1698773;83;20989;-70
2022/03/06 01:58:03;;;;;;;30.17;11.78;;;;;;;-0.97;78.76;100043.64;1710943;83;20977;-70
2022/03/06 02:00:34;;;;;;;38.48;12.93;;;;;;;-1.00;78.72;100038.18;1728006;81;21099;-69
2022/03/06 02:03:04;;;;;;;34.58;12.70;;;;;;;-1.03;78.65;100037.29;1767830;80;20947;-70
2022/03/06 02:05:33;;;;;;;38.63;12.28;;;;;;;-1.05;78.72;100046.67;1769229;80;20966;-70
2022/03/06 02:08:02;;;;;;;39.65;13.25;;;;;;;-1.09;78.61;100039.54;1760738;80;21010;-71
2022/03/06 02:10:35;;;;;;;37.75;12.15;;;;;;;-1.12;78.51;100040.84;1756342;80;20949;-69
2022/03/06 02:13:03;;;;;;;38.35;12.82;;;;;;;-1.14;78.50;100047.52;1761363;80;21209;-69
2022/03/06 02:15:32;;;;;;;36.80;11.60;;;;;;;-1.17;78.63;100046.63;1756000;80;21073;-69
2022/03/06 02:18:01;;;;;;;29.18;10.85;;;;;;;-1.23;78.69;100046.48;1755002;80;20996;-70
2022/03/06 02:20:28;;;;;;;36.05;11.00;;;;;;;-1.25;78.69;100047.27;1756835;80;21066;-69
2022/03/06 02:22:59;;;;;;;31.82;11.48;;;;;;;-1.25;78.74;100040.50;1727174;80;21533;-69
2022/03/06 02:25:32;;;;;;;21.48;8.33;;;;;;;-1.27;78.84;100042.61;1755375;80;20896;-70
2022/03/06 02:28:06;;;;;;;30.27;10.80;;;;;;;-1.29;78.96;100038.46;1742725;80;21923;-69
2022/03/06 02:30:34;;;;;;;;;;;;;;;-1.29;78.96;100037.95;1744660;80;21079;-71
2022/03/06 02:33:10;;;;;;;;;;;;;;;-1.28;78.97;100044.99;1750172;80;20165;-71
2022/03/06 02:35:36;;;;;;;20.43;8.05;;;;;;;-1.30;78.98;100041.72;1768753;80;20287;-71
2022/03/06 02:38:04;;;;;;;22.02;7.60;;;;;;;-1.30;78.97;100049.83;1741666;80;21588;-71
2022/03/06 02:40:37;;;;;;;21.23;7.87;;;;;;;-1.31;78.92;100048.16;1756219;80;21528;-69
2022/03/06 02:43:02;;;;;;;25.75;8.18;;;;;;;-1.29;78.82;100056.04;1774385;80;21124;-69
2022/03/06 02:45:30;;;;;;;19.85;7.33;;;;;;;-1.30;78.70;100053.87;1765272;79;21545;-71
2022/03/06 02:47:58;;;;;;;16.97;7.62;;;;;;;-1.36;78.37;100054.77;1745951;80;21472;-70
2022/03/06 02:50:30;;;;;;;23.02;8.25;;;;;;;-1.45;78.38;100061.56;1766165;80;20955;-72
2022/03/06 02:52:59;;;;;;;24.15;8.30;;;;;;;-1.48;78.62;100060.11;1739508;80;21024;-69
2022/03/06 02:55:27;;;;;;;19.23;8.28;;;;;;;-1.47;78.82;100057.73;1692243;82;22494;-69
2022/03/06 02:57:55;;;;;;;23.18;8.13;;;;;;;-1.47;78.88;100068.00;1702137;83;21051;-70
2022/03/06 03:00:23;;;;;;;17.27;7.35;;;;;;;-1.47;79.02;100060.44;1717105;81;21181;-71
2022/03/06 03:02:51;;;;;;;15.90;8.48;;;;;;;-1.50;78.91;100069.00;1704374;83;21032;-69
2022/03/06 03:05:23;;;;;;;16.62;7.65;;;;;;;-1.61;78.74;100068.70;1718563;81;21965;-70
2022/03/06 03:07:50;;;;;;;19.20;8.95;;;;;;;-1.71;78.74;100073.25;1697988;82;20996;-71
2022/03/06 03:10:26;;;;;;;15.30;7.28;;;;;;;-1.75;79.02;100074.77;1720115;81;20958;-70
2022/03/06 03:12:52;;;;;;;15.75;8.20;;;;;;;-1.73;79.22;100071.84;1736192;81;21563;-68
2022/03/06 03:15:22;;;;;;;8.58;5.55;;;;;;;-1.73;79.24;100072.67;1718020;81;21552;-69
2022/03/06 03:17:55;;;;;;;12.78;6.97;;;;;;;-1.72;79.34;100072.13;1727458;81;21402;-70
2022/03/06 03:20:26;;;;;;;13.25;6.72;;;;;;;-1.72;79.39;100071.61;1711222;81;21444;-71
2022/03/06 03:22:53;;;;;;;12.58;7.08;;;;;;;-1.69;79.33;100072.22;1732964;81;20898;-69
2022/03/06 03:25:20;;;;;;;13.98;6.22;;;;;;;-1.70;79.31;100070.03;1732459;81;21592;-71
2022/03/06 03:27:47;;;;;;;10.70;6.12;;;;;;;-1.69;79.32;100073.58;1704298;82;21114;-71
2022/03/06 03:30:16;;;;;;;11.70;5.53;;;;;;;-1.68;79.35;100072.00;1735469;81;21205;-71
2022/03/06 03:32:44;;;;;;;11.90;6.40;;;;;;;-1.67;79.34;100073.64;1736188;81;21430;-69
2022/03/06 03:35:15;;;;;;;12.93;6.30;;;;;;;-1.66;79.31;100073.12;1727633;81;20978;-67
2022/03/06 03:37:45;;;;;;;12.37;5.67;;;;;;;-1.66;79.22;100066.36;1740797;81;20977;-70
2022/03/06 03:40:12;;;;;;;12.10;6.40;;;;;;;-1.65;79.19;100077.46;1726634;81;20940;-69
2022/03/06 03:42:39;;;;;;;9.93;5.28;;;;;;;-1.66;79.28;100070.41;1727405;81;21795;-71
2022/03/06 03:45:08;;;;;;;14.75;6.55;;;;;;;-1.65;79.51;100074.77;1725349;81;21072;-71
2022/03/06 03:47:35;;;;;;;12.40;6.03;;;;;;;-1.65;79.60;100066.65;1693470;83;21146;-70
2022/03/06 03:50:04;;;;;;;11.78;5.65;;;;;;;-1.66;79.58;100073.95;1756285;80;21065;-69
2022/03/06 03:52:31;;;;;;;10.90;6.22;;;;;;;-1.63;79.58;100067.26;1740009;80;21425;-70
2022/03/06 03:54:59;;;;;;;10.70;5.25;;;;;;;-1.62;79.51;100068.93;1751901;80;21520;-69
2022/03/06 03:57:26;;;;;;;13.75;6.50;;;;;;;-1.62;79.62;100068.93;1739992;79;20857;-70
2022/03/06 03:59:55;;;;;;;12.00;5.45;;;;;;;-1.64;79.71;100067.77;1740552;80;21028;-70
2022/03/06 04:02:23;;;;;;;8.95;5.17;;;;;;;-1.63;79.79;100068.61;1768024;80;21009;-70
2022/03/06 04:04:53;;;;;;;11.45;6.42;;;;;;;-1.61;79.84;100073.27;1752477;80;20975;-70
2022/03/06 04:07:21;;;;;;;12.47;6.97;;;;;;;-1.61;79.80;100070.05;1743759;79;21604;-71
2022/03/06 04:09:48;;;;;;;15.80;7.45;;;;;;;-1.65;79.63;100079.65;1749708;80;21105;-70
2022/03/06 04:12:16;;;;;;;16.93;7.55;;;;;;;-1.74;79.61;100083.72;1761788;80;20910;-69
2022/03/06 04:14:46;;;;;;;10.90;6.62;;;;;;;-1.80;79.89;100083.23;1750883;80;20974;-69
2022/03/06 04:17:14;;;;;;;12.90;6.75;;;;;;;-1.81;80.10;100087.00;1749181;80;20845;-69
2022/03/06 04:19:42;;;;;;;15.58;7.03;;;;;;;-1.79;80.26;100084.91;1759850;80;21551;-70
2022/03/06 04:22:11;;;;;;;15.03;6.55;;;;;;;-1.78;80.36;100084.69;1718636;80;21023;-69
2022/03/06 04:24:42;;;;;;;13.93;5.78;;;;;;;-1.74;80.34;100094.52;1753032;80;20937;-70
2022/03/06 04:27:09;;;;;;;14.25;6.12;;;;;;;-1.72;80.44;100095.94;1750288;80;21632;-69
2022/03/06 04:29:42;;;;;;;13.03;6.92;;;;;;;-1.71;80.50;100093.52;1740981;80;21005;-72
2022/03/06 04:32:12;;;;;;;15.50;6.85;;;;;;;-1.67;80.50;100094.45;1768828;80;21246;-69
2022/03/06 04:34:43;;;;;;;27.32;10.48;;;;;;;-1.66;80.63;100094.74;1733893;80;20937;-72
2022/03/06 04:37:10;;;;;;;22.45;9.43;;;;;;;-1.68;80.58;100094.13;1752097;81;21004;-69
2022/03/06 04:39:38;;;;;;;14.83;7.17;;;;;;;-1.69;80.69;100097.90;1763449;80;21061;-71
2022/03/06 04:42:07;;;;;;;20.23;9.95;;;;;;;-1.67;80.86;100101.21;1762679;80;21066;-72
2022/03/06 04:44:37;;;;;;;23.55;11.60;;;;;;;-1.64;80.90;100098.05;1761497;80;21855;-72
2022/03/06 04:47:08;;;;;;;30.12;11.85;;;;;;;-1.62;80.86;100100.02;1754572;80;21454;-70
2022/03/06 04:49:40;;;;;;;26.48;12.15;;;;;;;-1.62;80.91;100105.42;1782019;80;20968;-71
2022/03/06 04:52:07;;;;;;;28.30;11.93;;;;;;;-1.60;80.90;100108.19;1762941;80;21571;-71
2022/03/06 04:54:36;;;;;;;30.92;12.13;;;;;;;-1.57;80.91;100103.39;1740552;80;21032;-71
2022/03/06 04:57:05;;;;;;;23.60;10.50;;;;;;;-1.54;80.96;100104.28;1748841;80;20984;-69
2022/03/06 04:59:33;;;;;;;20.75;10.08;;;;;;;-1.50;80.95;100108.20;1746822;80;20893;-69
2022/03/06 05:02:00;;;;;;;22.65;9.65;;;;;;;-1.48;80.82;100112.84;1737479;80;21111;-69
2022/03/06 05:04:27;;;;;;;17.55;7.97;;;;;;;-1.45;80.82;100112.38;1777902;79;20958;-70
2022/03/06 05:06:55;;;;;;;15.60;7.70;;;;;;;-1.42;80.80;100104.36;1746159;80;21032;-70
2022/03/06 05:09:25;;;;;;;15.05;5.97;;;;;;;-1.39;80.71;100111.50;1739788;80;20924;-71
2022/03/06 05:11:55;;;;;;;12.70;6.25;;;;;;;-1.37;80.56;100108.56;1750817;80;21537;-70
2022/03/06 05:14:24;;;;;;;11.20;5.20;;;;;;;-1.31;80.41;100110.91;1754438;80;20987;-69
2022/03/06 05:16:53;;;;;;;10.13;5.05;;;;;;;-1.28;80.26;100111.80;1746930;80;21027;-70
2022/03/06 05:19:24;;;;;;;10.48;5.62;;;;;;;-1.24;80.07;100111.63;1777155;80;21485;-71
2022/03/06 05:21:59;;;;;;;9.80;4.95;;;;;;;-1.19;79.87;100105.53;1723130;80;21162;-71
2022/03/06 05:24:29;;;;;;;9.18;4.90;;;;;;;-1.15;79.67;100108.09;1740823;80;21051;-69
2022/03/06 05:27:01;;;;;;;10.10;4.92;;;;;;;-1.10;79.42;100112.30;1731328;81;20849;-71
2022/03/06 05:29:28;;;;;;;8.63;4.78;;;;;;;-1.12;78.50;100107.63;1760371;80;20990;-69
2022/03/06 05:31:55;;;;;;;10.05;4.92;;;;;;;-1.20;77.84;100107.95;1751394;80;21003;-72
2022/03/06 05:34:22;;;;;;;8.38;4.20;;;;;;;-1.28;77.59;100110.45;1744195;80;21860;-71
2022/03/06 05:36:49;;;;;;;9.80;4.00;;;;;;;-1.29;77.66;100110.97;1755673;80;20890;-71
2022/03/06 05:39:17;;;;;;;8.58;5.05;;;;;;;-1.25;77.50;100113.53;1777768;80;21171;-71
2022/03/06 05:41:47;;;;;;;6.55;3.90;;;;;;;-1.23;77.17;100105.98;1769986;80;21679;-69
2022/03/06 05:44:14;;;;;;;7.55;4.10;;;;;;;-1.23;77.04;100110.59;1749597;81;21082;-69
2022/03/06 05:46:43;;;;;;;6.53;3.67;;;;;;;-1.17;77.26;100114.25;1752286;80;21611;-71
2022/03/06 05:49:14;;;;;;;8.13;3.70;;;;;;;-1.10;76.99;100117.70;1754536;80;20969;-70
2022/03/06 05:51:44;;;;;;;10.30;3.37;;;;;;;-1.11;76.56;100114.72;1759462;80;20996;-70
2022/03/06 05:54:11;;;;;;;3.47;2.30;;;;;;;-1.07;76.70;100106.42;1743842;80;21055;-69
2022/03/06 05:56:40;;;;;;;3.83;2.55;;;;;;;-0.99;76.73;100114.22;1742464;80;20920;-71
2022/03/06 05:59:10;;;;;;;7.10;3.10;;;;;;;-0.92;76.35;100104.66;1742227;80;21107;-70
2022/03/06 06:01:42;;;;;;;4.85;3.08;;;;;;;-0.85;76.32;100108.63;1757740;79;21043;-69
2022/03/06 06:04:12;;;;;;;4.50;3.08;;;;;;;-0.81;76.30;100110.36;1748715;80;21430;-68
2022/03/06 06:06:40;;;;;;;5.17;3.08;;;;;;;-0.81;75.79;100108.48;1755874;79;21563;-70
2022/03/06 06:09:11;;;;;;;7.00;2.70;;;;;;;-0.82;75.47;100108.16;1725746;80;21222;-69
2022/03/06 06:11:39;;;;;;;7.55;3.10;;;;;;;-0.77;75.41;100109.66;1753405;80;21268;-71
2022/03/06 06:14:12;;;;;;;7.25;3.17;;;;;;;-0.70;75.33;100104.15;1751949;80;21055;-69
2022/03/06 06:16:41;;;;;;;7.97;2.42;;;;;;;-0.60;75.11;100111.73;1743554;80;20984;-70
2022/03/06 06:19:10;;;;;;;5.83;2.83;;;;;;;-0.51;74.96;100111.69;1742724;80;20980;-69
2022/03/06 06:21:36;;;;;;;4.10;2.50;;;;;;;-0.44;74.70;100110.23;1771165;80;21004;-69
2022/03/06 06:24:07;;;;;;;3.52;2.60;;;;;;;-0.35;74.60;100114.79;1753275;80;21850;-71
2022/03/06 06:26:35;;;;;;;3.92;2.83;;;;;;;-0.27;74.38;100117.16;1727611;80;20984;-71
2022/03/06 06:29:03;;;;;;;5.35;2.92;;;;;;;-0.17;74.21;100115.77;1742249;80;21557;-68
2022/03/06 06:31:33;;;;;;;6.92;3.20;;;;;;;-0.10;74.05;100116.47;1726917;80;20927;-71
2022/03/06 06:34:01;;;;;;;3.67;2.50;;;;;;;-0.03;73.69;100119.90;1760586;80;21493;-69
2022/03/06 06:36:29;;;;;;;5.50;2.85;;;;;;;0.04;73.23;100128.44;1766897;79;21117;-70
2022/03/06 06:38:56;;;;;;;5.78;3.05;;;;;;;0.02;71.76;100123.80;1761512;80;21073;-71
2022/03/06 06:41:23;;;;;;;7.17;3.00;;;;;;;-0.08;70.98;100123.84;1762484;80;21020;-69
2022/03/06 06:43:50;;;;;;;7.35;3.40;;;;;;;-0.16;71.08;100125.02;1753574;80;21068;-68
2022/03/06 06:46:19;;;;;;;6.25;3.37;;;;;;;-0.19;70.68;100127.36;1755485;80;21579;-70
2022/03/06 06:48:46;;;;;;;5.65;3.42;;;;;;;-0.29;70.10;100130.10;1761969;80;22167;-69
2022/03/06 06:51:16;;;;;;;5.25;3.37;;;;;;;-0.33;70.85;100122.16;1758207;80;21533;-70
2022/03/06 06:53:43;;;;;;;7.03;3.55;;;;;;;-0.22;71.38;100133.25;1736990;80;20966;-70
2022/03/06 06:56:12;;;;;;;7.22;3.47;;;;;;;-0.09;71.47;100134.91;1697620;83;20971;-71
2022/03/06 06:58:42;;;;;;;7.17;3.42;;;;;;;0.02;71.59;100130.02;1758484;80;20973;-70
2022/03/06 07:01:10;;;;;;;4.92;2.85;;;;;;;0.16;71.57;100135.22;1725642;80;21273;-71
2022/03/06 07:03:38;;;;;;;7.25;3.42;;;;;;;0.28;71.39;100131.15;1766712;80;21407;-69
2022/03/06 07:06:08;;;;;;;5.42;3.30;;;;;;;0.36;71.18;100132.98;1760770;80;21072;-69
2022/03/06 07:08:37;;;;;;;6.20;2.85;;;;;;;0.45;70.97;100134.80;1755825;79;21010;-69
2022/03/06 07:11:04;;;;;;;16.65;3.70;;;;;;;0.53;70.68;100126.02;1733464;80;20957;-70
2022/03/06 07:13:31;;;;;;;4.83;2.70;;;;;;;0.60;70.43;100132.95;1739752;80;21854;-69
2022/03/06 07:16:02;;;;;;;6.08;2.95;;;;;;;0.65;70.02;100126.81;1752148;80;21024;-71
2022/03/06 07:18:29;;;;;;;6.95;3.10;;;;;;;0.70;69.53;100131.54;1764404;80;21184;-69
2022/03/06 07:20:57;;;;;;;5.20;3.05;;;;;;;0.75;69.26;100128.10;1766487;79;21038;-71
2022/03/06 07:23:25;;;;;;;6.10;3.40;;;;;;;0.78;68.68;100128.97;1767910;80;21588;-72
2022/03/06 07:25:54;;;;;;;5.92;3.92;;;;;;;0.78;68.08;100128.45;1751570;80;22076;-70
2022/03/06 07:28:21;;;;;;;6.95;4.22;;;;;;;0.71;67.82;100120.45;1748103;80;21095;-72
2022/03/06 07:30:49;;;;;;;9.10;4.45;;;;;;;0.73;68.04;100118.84;1720968;80;21014;-69
2022/03/06 07:33:16;;;;;;;6.75;3.42;;;;;;;0.75;68.25;100123.48;1750885;80;20956;-69
2022/03/06 07:35:44;;;;;;;7.95;4.55;;;;;;;0.76;68.10;100121.08;1769055;80;21467;-69
2022/03/06 07:38:12;;;;;;;6.55;4.17;;;;;;;0.80;68.17;100121.42;1761727;79;21215;-69
2022/03/06 07:40:41;;;;;;;8.73;4.30;;;;;;;0.84;67.68;100123.41;1755248;80;21450;-71
2022/03/06 07:43:10;;;;;;;6.47;4.10;;;;;;;0.85;67.50;100124.25;1741835;80;21556;-70
2022/03/06 07:45:39;;;;;;;6.53;4.10;;;;;;;0.87;67.44;100113.95;1743477;80;22641;-71
2022/03/06 07:48:06;;;;;;;8.03;3.77;;;;;;;0.91;67.52;100121.08;1754438;80;21142;-71
2022/03/06 07:50:33;;;;;;;7.37;4.85;;;;;;;0.95;67.59;100121.73;1746514;80;21683;-69
2022/03/06 07:53:02;;;;;;;8.35;4.95;;;;;;;0.97;67.50;100126.38;1763161;80;20957;-70
2022/03/06 07:55:31;;;;;;;8.48;4.67;;;;;;;1.01;67.40;100119.94;1749234;80;21430;-71
2022/03/06 07:57:59;;;;;;;8.30;5.10;;;;;;;1.05;67.19;100119.76;1744769;80;21110;-71
2022/03/06 08:00:29;;;;;;;11.48;5.70;;;;;;;1.05;66.66;100121.11;1751081;80;21108;-71
2022/03/06 08:02:58;;;;;;;8.60;5.25;;;;;;;0.99;66.26;100117.19;1752752;80;21212;-72
2022/03/06 08:05:29;;;;;;;8.58;4.83;;;;;;;0.90;66.05;100117.56;1747385;80;21100;-73
2022/03/06 08:07:56;;;;;;;8.60;4.72;;;;;;;0.84;65.70;100115.80;1768699;80;20934;-70
2022/03/06 08:10:23;;;;;;;7.00;4.25;;;;;;;0.77;65.34;100121.91;1762863;80;20964;-73
2022/03/06 08:12:52;;;;;;;11.55;5.58;;;;;;;0.70;65.51;100116.06;1748391;80;20949;-70
2022/03/06 08:15:20;;;;;;;13.32;6.97;;;;;;;0.69;66.16;100110.88;1742497;80;21560;-69
2022/03/06 08:17:48;;;;;;;16.30;7.50;;;;;;;0.70;66.66;100105.77;1733345;80;20961;-71
2022/03/06 08:20:15;;;;;;;13.40;6.62;;;;;;;0.68;67.18;100104.63;1724194;81;20969;-71
2022/03/06 08:22:44;;;;;;;18.25;8.80;;;;;;;0.70;67.66;100101.70;1728433;81;20964;-70
2022/03/06 08:25:15;;;;;;;18.60;9.35;;;;;;;0.75;67.81;100110.47;1740436;81;21122;-72
2022/03/06 08:27:44;;;;;;;13.55;8.15;;;;;;;0.76;67.68;100102.61;1720591;81;21295;-72
2022/03/06 08:30:14;;;;;;;15.38;7.87;;;;;;;0.76;67.77;100103.44;1721009;81;20972;-68
2022/03/06 08:32:41;;;;;;;14.43;7.42;;;;;;;0.78;68.04;100103.20;1716318;81;21008;-70
2022/03/06 08:35:10;;;;;;;15.05;7.47;;;;;;;0.83;68.44;100097.35;1730733;81;20892;-71
2022/03/06 08:37:39;;;;;;;16.77;8.28;;;;;;;0.90;68.65;100102.64;1730917;82;20930;-72
2022/03/06 08:40:08;;;;;;;15.20;7.70;;;;;;;0.97;68.48;100096.52;1736123;82;21156;-70
2022/03/06 08:42:40;;;;;;;13.70;7.00;;;;;;;1.02;68.23;100093.10;1757938;80;20953;-69
2022/03/06 08:45:08;;;;;;;13.25;7.45;;;;;;;1.08;67.91;100098.08;1742445;80;21119;-69
2022/03/06 08:47:37;;;;;;;13.70;7.72;;;;;;;1.11;67.79;100095.42;1742643;80;21020;-69
2022/03/06 08:50:05;;;;;;;14.95;8.15;;;;;;;1.14;67.68;100099.84;1736740;80;20957;-73
2022/03/06 08:52:35;;;;;;;13.88;7.80;;;;;;;1.16;67.45;100094.97;1767568;80;20974;-70
2022/03/06 08:55:08;;;;;;;10.25;6.20;;;;;;;1.14;67.29;100092.22;1752600;80;20940;-70
2022/03/06 08:57:38;;;;;;;11.10;6.22;;;;;;;1.10;66.74;100098.66;1755740;80;21049;-70
2022/03/06 09:00:08;;;;;;;12.37;6.95;;;;;;;1.00;66.94;100096.58;1761643;80;21090;-69
2022/03/06 09:02:37;;;;;;;12.98;6.97;;;;;;;0.99;66.84;100091.40;1732652;80;21075;-72
2022/03/06 09:05:05;;;;;;;14.05;7.10;;;;;;;1.02;66.94;100097.17;1749416;80;21088;-72
2022/03/06 09:07:32;;;;;;;12.98;5.83;;;;;;;1.07;66.69;100093.20;1721830;80;21076;-69
2022/03/06 09:10:03;;;;;;;13.78;6.00;;;;;;;1.09;65.98;100091.05;1754794;80;21225;-70
2022/03/06 09:12:31;;;;;;;11.45;5.90;;;;;;;1.09;65.29;100091.59;1759402;79;20992;-72
2022/03/06 09:15:01;;;;;;;13.18;6.47;;;;;;;1.08;65.27;100087.22;1750276;80;20980;-70
2022/03/06 09:17:31;;;;;;;9.13;5.45;;;;;;;1.12;65.43;100085.67;1750493;80;20889;-72
2022/03/06 09:20:04;;;;;;;10.32;6.28;;;;;;;1.11;64.94;100080.49;1737475;80;20936;-72
2022/03/06 09:22:35;;;;;;;7.62;4.22;;;;;;;0.94;64.90;100080.72;1741674;80;21092;-73
2022/03/06 09:25:08;;;;;;;8.48;5.35;;;;;;;0.88;65.04;100085.77;1752336;80;21072;-68
2022/03/06 09:27:40;;;;;;;12.70;6.45;;;;;;;0.78;64.69;100081.49;1761149;80;20917;-68
2022/03/06 09:30:09;;;;;;;17.95;7.25;;;;;;;0.66;65.14;100087.78;1749669;80;22131;-70
2022/03/06 09:32:40;;;;;;;13.72;6.78;;;;;;;0.69;64.85;100087.30;1777308;80;21130;-72
2022/03/06 09:35:08;;;;;;;13.40;6.15;;;;;;;0.72;64.75;100085.45;1748309;81;21760;-69
2022/03/06 09:37:37;;;;;;;11.12;6.42;;;;;;;0.67;64.52;100085.35;1779590;80;20985;-72
2022/03/06 09:40:05;;;;;;;10.13;5.80;;;;;;;0.60;64.64;100088.20;1746216;80;21063;-71
2022/03/06 09:42:33;;;;;;;11.25;5.70;;;;;;;0.56;64.38;100084.86;1729373;80;21667;-71
2022/03/06 09:45:08;;;;;;;11.75;6.42;;;;;;;0.60;64.18;100081.94;1758979;80;21004;-70
2022/03/06 09:47:38;;;;;;;12.15;5.90;;;;;;;0.70;64.30;100080.80;1755309;80;21593;-70
2022/03/06 09:50:08;;;;;;;11.45;6.22;;;;;;;0.85;64.37;100080.27;1755784;80;21058;-72
2022/03/06 09:52:35;;;;;;;8.13;4.95;;;;;;;0.94;63.32;100080.72;1767380;80;20976;-73
2022/03/06 09:55:06;;;;;;;9.18;5.05;;;;;;;0.97;62.88;100077.52;1733966;80;21270;-71
2022/03/06 09:57:35;;;;;;;8.90;4.95;;;;;;;0.99;61.31;100079.19;1756107;80;21011;-73
2022/03/06 10:00:06;;;;;;;8.53;5.20;;;;;;;0.89;60.54;100072.48;1729139;80;21580;-73
2022/03/06 10:03:00;;;;;;;12.60;5.85;;;;;;;0.83;60.87;100069.38;1748966;80;20961;-72
2022/03/06 10:05:33;;;;;;;14.18;6.30;;;;;;;0.89;60.72;100067.61;1763459;80;20944;-70
2022/03/06 10:08:23;;;;;;;11.60;5.47;;;;;;;0.96;60.76;100069.09;1742012;80;21111;-72
2022/03/06 10:11:01;;;;;;;8.65;4.87;;;;;;;0.95;59.74;100067.46;1752384;80;21044;-73
2022/03/06 10:13:35;;;;;;;14.87;6.72;;;;;;;0.92;59.30;100066.56;1776021;79;21015;-70
2022/03/06 10:16:18;;;;;;;10.25;6.05;;;;;;;0.92;59.35;100060.33;1760507;80;21549;-72
2022/03/06 10:18:51;;;;;;;11.95;5.60;;;;;;;0.94;59.54;100056.81;1759667;80;20969;-71
2022/03/06 10:21:25;;;;;;;17.62;5.95;;;;;;;0.93;58.98;100055.19;1755226;80;21260;-69
2022/03/06 10:23:57;;;;;;;9.23;5.83;;;;;;;0.91;59.47;100061.37;1760717;80;21119;-70
2022/03/06 10:26:29;;;;;;;12.78;5.78;;;;;;;0.81;59.01;100056.58;1729921;80;21464;-72
2022/03/06 10:29:03;;;;;;;12.80;6.05;;;;;;;0.67;59.31;100056.03;1755797;80;21441;-73
2022/03/06 10:31:34;;;;;;;15.55;6.47;;;;;;;0.67;59.50;100056.87;1755594;80;21102;-70
2022/03/06 10:34:13;;;;;;;13.28;6.45;;;;;;;0.62;58.85;100045.08;1761766;80;21910;-73
2022/03/06 10:36:49;;;;;;;12.13;6.47;;;;;;;0.62;59.49;100049.15;1776985;79;21292;-72
2022/03/06 10:39:22;;;;;;;10.08;5.65;;;;;;;0.72;59.86;100049.35;1764378;80;21293;-72
2022/03/06 10:41:53;;;;;;;11.10;5.67;;;;;;;0.80;58.78;100050.87;1767381;80;21012;-73
2022/03/06 10:44:23;;;;;;;10.32;6.05;;;;;;;0.82;58.39;100045.48;1769935;80;21099;-70
2022/03/06 10:47:04;;;;;;;7.25;4.47;;;;;;;0.84;58.12;100048.79;1753028;80;20977;-70
2022/03/06 10:49:33;;;;;;;6.90;4.20;;;;;;;0.82;56.68;100043.33;1747834;80;21082;-72
2022/03/06 10:52:21;;;;;;;6.30;3.50;;;;;;;0.73;56.14;100045.04;1755951;80;21056;-73
2022/03/06 10:54:57;;;;;;;10.05;5.15;;;;;;;0.74;55.10;100041.80;1772016;80;21035;-70
2022/03/06 10:57:25;;;;;;;9.95;4.60;;;;;;;0.75;54.61;100037.21;1742373;80;20996;-71
2022/03/06 10:59:52;;;;;;;9.78;5.15;;;;;;;0.77;54.10;100040.52;1742259;80;21488;-70
2022/03/06 11:02:20;;;;;;;11.90;5.67;;;;;;;0.81;54.29;100034.88;1781836;80;20985;-71
2022/03/06 11:04:49;;;;;;;12.33;6.20;;;;;;;0.88;54.07;100029.30;1744784;80;21067;-70
2022/03/06 11:07:19;;;;;;;14.47;5.90;;;;;;;0.85;53.75;100025.20;1753569;79;20974;-71
2022/03/06 11:09:52;;;;;;;8.75;5.35;;;;;;;0.91;54.04;100034.23;1763467;80;20948;-70
2022/03/06 11:12:20;;;;;;;11.55;6.33;;;;;;;0.93;53.60;100027.52;1736843;80;21188;-71
2022/03/06 11:14:47;;;;;;;11.22;6.50;;;;;;;0.95;53.77;100029.46;1741882;80;21410;-72
2022/03/06 11:17:17;;;;;;;13.43;7.55;;;;;;;0.93;53.84;100028.88;1744947;80;21000;-73
2022/03/06 11:19:44;;;;;;;10.88;5.80;;;;;;;0.87;54.08;100022.24;1748091;80;21454;-71
2022/03/06 11:22:41;;;;;;;15.18;5.15;;;;;;;0.90;54.14;100021.23;1752612;79;21504;-72
2022/03/06 11:25:11;;;;;;;11.70;5.95;;;;;;;0.98;53.83;100015.92;1753990;80;22140;-72
2022/03/06 11:28:32;;;;;;;10.18;5.87;;;;;;;0.96;53.63;100013.45;1770758;80;21560;-70
2022/03/06 11:31:01;;;;;;;13.62;5.97;;;;;;;0.86;53.50;100021.41;1732741;80;20980;-73
2022/03/06 11:33:35;;;;;;;13.68;6.05;;;;;;;0.86;53.61;100014.63;1775854;80;21000;-68
2022/03/06 11:36:07;;;;;;;13.35;6.60;;;;;;;0.85;54.01;100012.98;1742351;80;21726;-73